sensor_id;sensor_type;location;lat;lon;timestamp;temperature;humidity
23124;DHT22;11731;48.592;8.858;2023-08-20T00:00:15;24.10;99.90
23124;DHT22;11731;48.592;8.858;2023-08-20T00:04:36;24.20;99.90
23124;DHT22;11731;48.592;8.858;2023-08-20T00:05:56;24.20;99.90
23124;DHT22;11731;48.592;8.858;2023-08-20T00:08:24;24.30;99.90
23124;DHT22;11731;48.592;8.858;2023-08-20T00:10:51;24.20;99.90
23124;DHT22;11731;48.592;8.858;2023-08-20T00:13:18;24.20;99.90
23124;DHT22;11731;48.592;8.858;2023-08-20T00:15:45;23.90;99.90
23124;DHT22;11731;48.592;8.858;2023-08-20T00:18:13;24.00;99.90
23124;DHT22;11731;48.592;8.858;2023-08-20T00:20:42;24.00;99.90
23124;DHT22;11731;48.592;8.858;2023-08-20T00:23:48;23.60;99.90
23124;DHT22;11731;48.592;8.858;2023-08-20T00:26:15;23.70;99.90
23124;DHT22;11731;48.592;8.858;2023-08-20T00:28:42;23.70;99.90
23124;DHT22;11731;48.592;8.858;2023-08-20T00:31:09;23.90;99.90
23124;DHT22;11731;48.592;8.858;2023-08-20T00:33:36;23.80;99.90
23124;DHT22;11731;48.592;8.858;2023-08-20T00:36:03;23.70;99.90
23124;DHT22;11731;48.592;8.858;2023-08-20T00:38:29;23.90;99.90
23124;DHT22;11731;48.592;8.858;2023-08-20T00:40:58;23.70;99.90
23124;DHT22;11731;48.592;8.858;2023-08-20T00:43:27;23.50;99.90
23124;DHT22;11731;48.592;8.858;2023-08-20T00:45:59;23.30;99.90
23124;DHT22;11731;48.592;8.858;2023-08-20T00:48:26;23.40;99.90
23124;DHT22;11731;48.592;8.858;2023-08-20T00:50:53;23.40;99.90
23124;DHT22;11731;48.592;8.858;2023-08-20T00:53:19;23.60;99.90
23124;DHT22;11731;48.592;8.858;2023-08-20T00:55:48;23.60;99.90
23124;DHT22;11731;48.592;8.858;2023-08-20T00:58:17;23.50;99.90
23124;DHT22;11731;48.592;8.858;2023-08-20T01:00:44;23.60;99.90
23124;DHT22;11731;48.592;8.858;2023-08-20T01:03:11;23.50;99.90
23124;DHT22;11731;48.592;8.858;2023-08-20T01:06:00;23.50;99.90
23124;DHT22;11731;48.592;8.858;2023-08-20T01:08:33;23.70;99.90
23124;DHT22;11731;48.592;8.858;2023-08-20T01:11:25;23.70;99.90
23124;DHT22;11731;48.592;8.858;2023-08-20T01:13:55;23.70;99.90
23124;DHT22;11731;48.592;8.858;2023-08-20T01:16:24;23.80;99.90
23124;DHT22;11731;48.592;8.858;2023-08-20T01:19:11;23.90;99.90
23124;DHT22;11731;48.592;8.858;2023-08-20T01:21:51;23.70;99.90
23124;DHT22;11731;48.592;8.858;2023-08-20T01:24:38;23.70;99.90
23124;DHT22;11731;48.592;8.858;2023-08-20T01:27:23;23.70;99.90
23124;DHT22;11731;48.592;8.858;2023-08-20T01:30:09;23.80;99.90
23124;DHT22;11731;48.592;8.858;2023-08-20T01:32:58;23.70;99.90
23124;DHT22;11731;48.592;8.858;2023-08-20T01:35:25;23.70;99.90
23124;DHT22;11731;48.592;8.858;2023-08-20T01:37:52;23.60;99.90
23124;DHT22;11731;48.592;8.858;2023-08-20T01:40:19;23.50;99.90
23124;DHT22;11731;48.592;8.858;2023-08-20T01:42:46;23.60;99.90
23124;DHT22;11731;48.592;8.858;2023-08-20T01:45:14;23.50;99.90
23124;DHT22;11731;48.592;8.858;2023-08-20T01:47:41;23.50;99.90
23124;DHT22;11731;48.592;8.858;2023-08-20T01:50:09;23.50;99.90
23124;DHT22;11731;48.592;8.858;2023-08-20T01:52:36;23.40;99.90
23124;DHT22;11731;48.592;8.858;2023-08-20T01:55:04;23.50;99.90
23124;DHT22;11731;48.592;8.858;2023-08-20T02:00:10;23.50;99.90
23124;DHT22;11731;48.592;8.858;2023-08-20T02:02:38;23.50;99.90
23124;DHT22;11731;48.592;8.858;2023-08-20T02:05:06;23.50;99.90
23124;DHT22;11731;48.592;8.858;2023-08-20T02:07:33;23.40;99.90
23124;DHT22;11731;48.592;8.858;2023-08-20T02:09:59;23.00;99.90
23124;DHT22;11731;48.592;8.858;2023-08-20T02:12:26;23.00;99.90
23124;DHT22;11731;48.592;8.858;2023-08-20T02:14:55;23.10;99.90
23124;DHT22;11731;48.592;8.858;2023-08-20T02:17:22;23.20;99.90
23124;DHT22;11731;48.592;8.858;2023-08-20T02:19:51;23.20;99.90
23124;DHT22;11731;48.592;8.858;2023-08-20T02:22:28;23.10;99.90
23124;DHT22;11731;48.592;8.858;2023-08-20T02:24:55;23.10;99.90
23124;DHT22;11731;48.592;8.858;2023-08-20T02:27:22;23.10;99.90
23124;DHT22;11731;48.592;8.858;2023-08-20T02:29:49;23.10;99.90
23124;DHT22;11731;48.592;8.858;2023-08-20T02:32:20;23.10;99.90
23124;DHT22;11731;48.592;8.858;2023-08-20T02:34:58;23.00;99.90
23124;DHT22;11731;48.592;8.858;2023-08-20T02:37:30;22.80;99.90
23124;DHT22;11731;48.592;8.858;2023-08-20T02:40:04;22.70;99.90
23124;DHT22;11731;48.592;8.858;2023-08-20T02:42:31;23.00;99.90
23124;DHT22;11731;48.592;8.858;2023-08-20T02:44:58;23.00;99.90
23124;DHT22;11731;48.592;8.858;2023-08-20T02:47:25;23.00;99.90
23124;DHT22;11731;48.592;8.858;2023-08-20T02:49:53;23.00;99.90
23124;DHT22;11731;48.592;8.858;2023-08-20T02:52:20;23.00;99.90
23124;DHT22;11731;48.592;8.858;2023-08-20T02:54:47;23.00;99.90
23124;DHT22;11731;48.592;8.858;2023-08-20T02:57:20;22.90;99.90
23124;DHT22;11731;48.592;8.858;2023-08-20T03:00:24;23.00;99.90
23124;DHT22;11731;48.592;8.858;2023-08-20T03:02:51;22.80;99.90
23124;DHT22;11731;48.592;8.858;2023-08-20T03:05:29;22.80;99.90
23124;DHT22;11731;48.592;8.858;2023-08-20T03:08:04;22.90;99.90
23124;DHT22;11731;48.592;8.858;2023-08-20T03:10:31;23.00;99.90
23124;DHT22;11731;48.592;8.858;2023-08-20T03:12:58;23.00;99.90
23124;DHT22;11731;48.592;8.858;2023-08-20T03:15:26;23.00;99.90
23124;DHT22;11731;48.592;8.858;2023-08-20T03:18:06;23.00;99.90
23124;DHT22;11731;48.592;8.858;2023-08-20T03:20:33;23.00;99.90
23124;DHT22;11731;48.592;8.858;2023-08-20T03:23:00;23.00;99.90
23124;DHT22;11731;48.592;8.858;2023-08-20T03:25:27;22.90;99.90
23124;DHT22;11731;48.592;8.858;2023-08-20T03:27:54;22.80;99.90
23124;DHT22;11731;48.592;8.858;2023-08-20T03:30:21;22.70;99.90
23124;DHT22;11731;48.592;8.858;2023-08-20T03:38:53;22.40;99.90
23124;DHT22;11731;48.592;8.858;2023-08-20T03:41:22;22.30;99.90
23124;DHT22;11731;48.592;8.858;2023-08-20T03:43:51;22.30;99.90
23124;DHT22;11731;48.592;8.858;2023-08-20T03:47:02;22.30;99.90
23124;DHT22;11731;48.592;8.858;2023-08-20T03:49:32;22.40;99.90
23124;DHT22;11731;48.592;8.858;2023-08-20T03:52:21;22.40;99.90
23124;DHT22;11731;48.592;8.858;2023-08-20T03:54:57;22.30;99.90
23124;DHT22;11731;48.592;8.858;2023-08-20T03:57:24;22.10;99.90
23124;DHT22;11731;48.592;8.858;2023-08-20T03:59:51;21.90;99.90
23124;DHT22;11731;48.592;8.858;2023-08-20T04:02:18;21.90;99.90
23124;DHT22;11731;48.592;8.858;2023-08-20T04:04:45;21.80;99.90
23124;DHT22;11731;48.592;8.858;2023-08-20T04:07:11;21.90;99.90
23124;DHT22;11731;48.592;8.858;2023-08-20T04:09:38;21.90;99.90
23124;DHT22;11731;48.592;8.858;2023-08-20T04:12:07;22.10;99.90
23124;DHT22;11731;48.592;8.858;2023-08-20T04:14:34;22.10;99.90
23124;DHT22;11731;48.592;8.858;2023-08-20T04:17:01;22.20;99.90
23124;DHT22;11731;48.592;8.858;2023-08-20T04:19:28;22.20;99.90
23124;DHT22;11731;48.592;8.858;2023-08-20T04:21:55;22.20;99.90
23124;DHT22;11731;48.592;8.858;2023-08-20T04:24:22;22.20;99.90
23124;DHT22;11731;48.592;8.858;2023-08-20T04:26:49;22.20;99.90
23124;DHT22;11731;48.592;8.858;2023-08-20T04:29:17;22.20;99.90
23124;DHT22;11731;48.592;8.858;2023-08-20T04:31:45;22.20;99.90
23124;DHT22;11731;48.592;8.858;2023-08-20T04:34:11;22.20;99.90
23124;DHT22;11731;48.592;8.858;2023-08-20T04:36:38;22.10;99.90
23124;DHT22;11731;48.592;8.858;2023-08-20T04:39:05;22.00;99.90
23124;DHT22;11731;48.592;8.858;2023-08-20T04:41:32;22.00;99.90
23124;DHT22;11731;48.592;8.858;2023-08-20T04:43:59;22.20;99.90
23124;DHT22;11731;48.592;8.858;2023-08-20T04:46:27;21.70;99.90
23124;DHT22;11731;48.592;8.858;2023-08-20T04:48:54;21.70;99.90
23124;DHT22;11731;48.592;8.858;2023-08-20T04:51:21;21.90;99.90
23124;DHT22;11731;48.592;8.858;2023-08-20T04:53:48;22.10;99.90
23124;DHT22;11731;48.592;8.858;2023-08-20T04:56:15;22.10;99.90
23124;DHT22;11731;48.592;8.858;2023-08-20T04:58:42;22.30;99.90
23124;DHT22;11731;48.592;8.858;2023-08-20T05:01:09;22.30;99.90
23124;DHT22;11731;48.592;8.858;2023-08-20T05:03:37;22.30;99.90
23124;DHT22;11731;48.592;8.858;2023-08-20T05:06:04;22.50;99.90
23124;DHT22;11731;48.592;8.858;2023-08-20T05:08:31;22.50;99.90
23124;DHT22;11731;48.592;8.858;2023-08-20T05:10:57;22.60;99.90
23124;DHT22;11731;48.592;8.858;2023-08-20T05:13:24;22.70;99.90
23124;DHT22;11731;48.592;8.858;2023-08-20T05:15:51;22.80;99.90
23124;DHT22;11731;48.592;8.858;2023-08-20T05:18:18;22.80;99.90
23124;DHT22;11731;48.592;8.858;2023-08-20T05:20:46;22.90;99.90
23124;DHT22;11731;48.592;8.858;2023-08-20T05:23:13;23.00;99.90
23124;DHT22;11731;48.592;8.858;2023-08-20T05:25:40;23.10;99.90
23124;DHT22;11731;48.592;8.858;2023-08-20T05:28:07;23.20;99.90
23124;DHT22;11731;48.592;8.858;2023-08-20T05:30:34;23.30;99.90
23124;DHT22;11731;48.592;8.858;2023-08-20T05:33:01;23.30;99.90
23124;DHT22;11731;48.592;8.858;2023-08-20T05:35:28;23.40;99.90
23124;DHT22;11731;48.592;8.858;2023-08-20T05:37:56;23.60;99.90
23124;DHT22;11731;48.592;8.858;2023-08-20T05:40:23;23.60;99.90
23124;DHT22;11731;48.592;8.858;2023-08-20T05:42:49;23.60;99.90
23124;DHT22;11731;48.592;8.858;2023-08-20T05:45:16;23.60;99.90
23124;DHT22;11731;48.592;8.858;2023-08-20T05:47:43;23.70;99.90
23124;DHT22;11731;48.592;8.858;2023-08-20T05:50:10;23.90;99.90
23124;DHT22;11731;48.592;8.858;2023-08-20T05:52:37;23.90;99.90
23124;DHT22;11731;48.592;8.858;2023-08-20T05:55:06;23.90;99.90
23124;DHT22;11731;48.592;8.858;2023-08-20T05:57:33;24.00;99.90
23124;DHT22;11731;48.592;8.858;2023-08-20T06:00:02;24.10;99.90
23124;DHT22;11731;48.592;8.858;2023-08-20T06:02:29;24.30;99.90
23124;DHT22;11731;48.592;8.858;2023-08-20T06:04:56;24.70;99.90
23124;DHT22;11731;48.592;8.858;2023-08-20T06:07:23;24.90;99.90
23124;DHT22;11731;48.592;8.858;2023-08-20T06:09:50;25.10;99.90
23124;DHT22;11731;48.592;8.858;2023-08-20T06:12:18;25.30;99.90
23124;DHT22;11731;48.592;8.858;2023-08-20T06:14:45;25.20;99.90
23124;DHT22;11731;48.592;8.858;2023-08-20T06:17:12;25.40;99.90
23124;DHT22;11731;48.592;8.858;2023-08-20T06:19:39;25.70;99.90
23124;DHT22;11731;48.592;8.858;2023-08-20T06:22:06;25.80;99.90
23124;DHT22;11731;48.592;8.858;2023-08-20T06:24:32;25.70;99.90
23124;DHT22;11731;48.592;8.858;2023-08-20T06:26:59;25.60;99.90
23124;DHT22;11731;48.592;8.858;2023-08-20T06:29:29;26.00;99.90
23124;DHT22;11731;48.592;8.858;2023-08-20T06:32:10;26.30;99.90
23124;DHT22;11731;48.592;8.858;2023-08-20T06:34:37;26.60;99.90
23124;DHT22;11731;48.592;8.858;2023-08-20T06:37:04;26.70;99.90
23124;DHT22;11731;48.592;8.858;2023-08-20T06:39:31;26.40;99.90
23124;DHT22;11731;48.592;8.858;2023-08-20T06:41:58;26.50;99.90
23124;DHT22;11731;48.592;8.858;2023-08-20T06:44:24;26.70;99.90
23124;DHT22;11731;48.592;8.858;2023-08-20T06:47:00;27.00;99.90
23124;DHT22;11731;48.592;8.858;2023-08-20T06:49:27;27.00;99.90
23124;DHT22;11731;48.592;8.858;2023-08-20T06:51:54;26.80;99.90
23124;DHT22;11731;48.592;8.858;2023-08-20T06:54:22;26.90;99.90
23124;DHT22;11731;48.592;8.858;2023-08-20T06:56:49;27.10;99.90
23124;DHT22;11731;48.592;8.858;2023-08-20T06:59:16;27.30;99.90
23124;DHT22;11731;48.592;8.858;2023-08-20T07:01:54;27.50;99.90
23124;DHT22;11731;48.592;8.858;2023-08-20T07:04:21;27.70;99.90
23124;DHT22;11731;48.592;8.858;2023-08-20T07:06:48;27.50;99.90
23124;DHT22;11731;48.592;8.858;2023-08-20T07:09:17;27.70;99.90
23124;DHT22;11731;48.592;8.858;2023-08-20T07:11:45;27.80;99.90
23124;DHT22;11731;48.592;8.858;2023-08-20T07:14:12;27.90;99.90
23124;DHT22;11731;48.592;8.858;2023-08-20T07:19:49;28.00;99.90
23124;DHT22;11731;48.592;8.858;2023-08-20T07:22:16;28.10;99.90
23124;DHT22;11731;48.592;8.858;2023-08-20T07:24:43;27.90;99.90
23124;DHT22;11731;48.592;8.858;2023-08-20T07:29:45;27.30;99.90
23124;DHT22;11731;48.592;8.858;2023-08-20T07:32:16;27.20;99.90
23124;DHT22;11731;48.592;8.858;2023-08-20T07:34:43;27.40;99.90
23124;DHT22;11731;48.592;8.858;2023-08-20T07:37:11;27.70;99.90
23124;DHT22;11731;48.592;8.858;2023-08-20T07:39:38;28.00;99.90
23124;DHT22;11731;48.592;8.858;2023-08-20T07:42:06;27.90;99.90
23124;DHT22;11731;48.592;8.858;2023-08-20T07:44:33;27.90;99.90
23124;DHT22;11731;48.592;8.858;2023-08-20T07:46:59;28.00;99.90
23124;DHT22;11731;48.592;8.858;2023-08-20T07:49:26;28.20;99.90
23124;DHT22;11731;48.592;8.858;2023-08-20T07:51:53;28.50;99.90
23124;DHT22;11731;48.592;8.858;2023-08-20T07:54:26;28.70;99.90
23124;DHT22;11731;48.592;8.858;2023-08-20T07:56:54;29.10;99.90
23124;DHT22;11731;48.592;8.858;2023-08-20T07:59:21;29.00;99.90
23124;DHT22;11731;48.592;8.858;2023-08-20T08:01:48;28.80;99.90
23124;DHT22;11731;48.592;8.858;2023-08-20T08:04:15;29.00;99.90
23124;DHT22;11731;48.592;8.858;2023-08-20T08:06:42;28.90;99.90
23124;DHT22;11731;48.592;8.858;2023-08-20T08:09:18;28.50;99.90
23124;DHT22;11731;48.592;8.858;2023-08-20T08:11:47;28.00;99.90
23124;DHT22;11731;48.592;8.858;2023-08-20T08:14:14;27.80;99.90
23124;DHT22;11731;48.592;8.858;2023-08-20T08:16:41;27.70;99.90
23124;DHT22;11731;48.592;8.858;2023-08-20T08:19:08;28.10;99.90
23124;DHT22;11731;48.592;8.858;2023-08-20T08:21:35;28.20;99.90
23124;DHT22;11731;48.592;8.858;2023-08-20T08:24:14;28.20;99.90
23124;DHT22;11731;48.592;8.858;2023-08-20T08:26:49;28.50;99.90
23124;DHT22;11731;48.592;8.858;2023-08-20T08:29:15;28.80;99.90
23124;DHT22;11731;48.592;8.858;2023-08-20T08:31:42;28.80;99.90
23124;DHT22;11731;48.592;8.858;2023-08-20T08:34:09;29.00;99.90
23124;DHT22;11731;48.592;8.858;2023-08-20T08:36:36;29.40;99.90
23124;DHT22;11731;48.592;8.858;2023-08-20T08:39:03;29.40;99.90
23124;DHT22;11731;48.592;8.858;2023-08-20T08:41:31;29.50;99.90
23124;DHT22;11731;48.592;8.858;2023-08-20T08:44:03;29.20;99.90
23124;DHT22;11731;48.592;8.858;2023-08-20T08:46:30;29.40;99.90
23124;DHT22;11731;48.592;8.858;2023-08-20T08:48:57;29.30;99.90
23124;DHT22;11731;48.592;8.858;2023-08-20T08:51:25;29.20;99.90
23124;DHT22;11731;48.592;8.858;2023-08-20T08:53:53;29.40;99.90
23124;DHT22;11731;48.592;8.858;2023-08-20T08:56:20;29.40;99.90
23124;DHT22;11731;48.592;8.858;2023-08-20T08:58:47;29.30;99.90
23124;DHT22;11731;48.592;8.858;2023-08-20T09:01:16;29.60;99.90
23124;DHT22;11731;48.592;8.858;2023-08-20T09:03:43;29.30;99.90
23124;DHT22;11731;48.592;8.858;2023-08-20T09:06:10;29.40;99.90
23124;DHT22;11731;48.592;8.858;2023-08-20T09:08:36;29.50;99.90
23124;DHT22;11731;48.592;8.858;2023-08-20T09:11:03;29.70;99.90
23124;DHT22;11731;48.592;8.858;2023-08-20T09:13:34;29.50;99.90
23124;DHT22;11731;48.592;8.858;2023-08-20T09:16:04;29.70;99.90
23124;DHT22;11731;48.592;8.858;2023-08-20T09:21:02;29.40;99.90
23124;DHT22;11731;48.592;8.858;2023-08-20T09:23:34;29.30;99.90
23124;DHT22;11731;48.592;8.858;2023-08-20T09:26:19;29.40;99.90
23124;DHT22;11731;48.592;8.858;2023-08-20T09:32:00;29.50;99.90
23124;DHT22;11731;48.592;8.858;2023-08-20T09:34:36;29.60;99.90
23124;DHT22;11731;48.592;8.858;2023-08-20T09:37:07;29.60;99.90
23124;DHT22;11731;48.592;8.858;2023-08-20T09:39:40;29.40;99.90
23124;DHT22;11731;48.592;8.858;2023-08-20T09:42:25;29.70;99.90
23124;DHT22;11731;48.592;8.858;2023-08-20T09:47:57;30.00;99.90
23124;DHT22;11731;48.592;8.858;2023-08-20T09:50:46;30.10;99.90
23124;DHT22;11731;48.592;8.858;2023-08-20T09:53:19;30.10;99.90
23124;DHT22;11731;48.592;8.858;2023-08-20T09:55:50;30.30;99.90
23124;DHT22;11731;48.592;8.858;2023-08-20T09:58:19;30.30;99.90
23124;DHT22;11731;48.592;8.858;2023-08-20T10:00:51;30.20;99.90
23124;DHT22;11731;48.592;8.858;2023-08-20T10:03:20;30.10;99.90
23124;DHT22;11731;48.592;8.858;2023-08-20T10:05:49;30.60;99.90
23124;DHT22;11731;48.592;8.858;2023-08-20T10:08:18;30.40;99.90
23124;DHT22;11731;48.592;8.858;2023-08-20T10:10:45;30.40;99.90
23124;DHT22;11731;48.592;8.858;2023-08-20T10:13:13;30.30;99.90
23124;DHT22;11731;48.592;8.858;2023-08-20T10:15:42;30.50;99.90
23124;DHT22;11731;48.592;8.858;2023-08-20T10:18:13;30.80;99.90
23124;DHT22;11731;48.592;8.858;2023-08-20T10:20:40;30.80;99.90
23124;DHT22;11731;48.592;8.858;2023-08-20T10:23:08;31.10;99.90
23124;DHT22;11731;48.592;8.858;2023-08-20T10:25:42;31.10;99.90
23124;DHT22;11731;48.592;8.858;2023-08-20T10:28:20;31.00;99.90
23124;DHT22;11731;48.592;8.858;2023-08-20T10:31:07;30.80;99.90
23124;DHT22;11731;48.592;8.858;2023-08-20T10:33:35;30.90;99.90
23124;DHT22;11731;48.592;8.858;2023-08-20T10:36:09;31.20;99.90
23124;DHT22;11731;48.592;8.858;2023-08-20T10:38:37;31.30;99.90
23124;DHT22;11731;48.592;8.858;2023-08-20T10:41:07;31.20;99.90
23124;DHT22;11731;48.592;8.858;2023-08-20T10:43:37;31.30;99.90
23124;DHT22;11731;48.592;8.858;2023-08-20T10:46:14;31.40;99.90
23124;DHT22;11731;48.592;8.858;2023-08-20T10:48:42;30.80;99.90
23124;DHT22;11731;48.592;8.858;2023-08-20T10:51:11;30.70;99.90
23124;DHT22;11731;48.592;8.858;2023-08-20T10:53:41;31.00;99.90
23124;DHT22;11731;48.592;8.858;2023-08-20T10:56:14;31.20;99.90
23124;DHT22;11731;48.592;8.858;2023-08-20T10:58:41;31.80;99.90
23124;DHT22;11731;48.592;8.858;2023-08-20T11:01:15;31.80;99.90
23124;DHT22;11731;48.592;8.858;2023-08-20T11:03:43;31.40;99.90
23124;DHT22;11731;48.592;8.858;2023-08-20T11:06:11;31.40;99.90
23124;DHT22;11731;48.592;8.858;2023-08-20T11:08:38;31.40;99.90
23124;DHT22;11731;48.592;8.858;2023-08-20T11:11:05;31.30;99.90
23124;DHT22;11731;48.592;8.858;2023-08-20T11:13:35;31.80;99.90
23124;DHT22;11731;48.592;8.858;2023-08-20T11:16:02;32.20;99.70
23124;DHT22;11731;48.592;8.858;2023-08-20T11:18:30;32.00;99.70
23124;DHT22;11731;48.592;8.858;2023-08-20T11:20:58;32.00;99.60
23124;DHT22;11731;48.592;8.858;2023-08-20T11:23:25;32.00;99.50
23124;DHT22;11731;48.592;8.858;2023-08-20T11:25:52;32.10;99.20
23124;DHT22;11731;48.592;8.858;2023-08-20T11:28:19;32.40;98.00
23124;DHT22;11731;48.592;8.858;2023-08-20T11:30:48;32.60;98.00
23124;DHT22;11731;48.592;8.858;2023-08-20T11:33:16;32.40;98.40
23124;DHT22;11731;48.592;8.858;2023-08-20T11:35:43;32.20;98.30
23124;DHT22;11731;48.592;8.858;2023-08-20T11:38:10;32.30;98.00
23124;DHT22;11731;48.592;8.858;2023-08-20T11:40:37;32.20;98.60
23124;DHT22;11731;48.592;8.858;2023-08-20T11:43:04;32.40;98.10
23124;DHT22;11731;48.592;8.858;2023-08-20T11:52:00;32.40;97.90
23124;DHT22;11731;48.592;8.858;2023-08-20T11:54:27;32.80;97.20
23124;DHT22;11731;48.592;8.858;2023-08-20T11:57:03;32.60;98.00
23124;DHT22;11731;48.592;8.858;2023-08-20T11:59:32;32.90;97.50
23124;DHT22;11731;48.592;8.858;2023-08-20T12:02:13;33.00;96.70
23124;DHT22;11731;48.592;8.858;2023-08-20T12:04:40;33.40;96.90
23124;DHT22;11731;48.592;8.858;2023-08-20T12:07:13;33.70;96.80
23124;DHT22;11731;48.592;8.858;2023-08-20T12:09:41;33.70;96.50
23124;DHT22;11731;48.592;8.858;2023-08-20T12:12:13;33.60;96.10
23124;DHT22;11731;48.592;8.858;2023-08-20T12:14:41;33.20;96.70
23124;DHT22;11731;48.592;8.858;2023-08-20T12:17:09;33.30;96.50
23124;DHT22;11731;48.592;8.858;2023-08-20T12:19:37;33.40;96.70
23124;DHT22;11731;48.592;8.858;2023-08-20T12:22:04;33.70;96.00
23124;DHT22;11731;48.592;8.858;2023-08-20T12:24:32;33.50;95.90
23124;DHT22;11731;48.592;8.858;2023-08-20T12:26:59;33.30;96.10
23124;DHT22;11731;48.592;8.858;2023-08-20T12:29:25;33.00;96.50
23124;DHT22;11731;48.592;8.858;2023-08-20T12:31:52;33.00;96.10
23124;DHT22;11731;48.592;8.858;2023-08-20T12:34:19;33.20;96.10
23124;DHT22;11731;48.592;8.858;2023-08-20T12:36:48;33.00;96.20
23124;DHT22;11731;48.592;8.858;2023-08-20T12:39:15;33.20;96.00
23124;DHT22;11731;48.592;8.858;2023-08-20T12:41:43;33.70;95.70
23124;DHT22;11731;48.592;8.858;2023-08-20T12:44:10;33.50;95.40
23124;DHT22;11731;48.592;8.858;2023-08-20T12:46:37;33.50;95.30
23124;DHT22;11731;48.592;8.858;2023-08-20T12:49:04;33.50;95.30
23124;DHT22;11731;48.592;8.858;2023-08-20T12:51:31;34.00;95.30
23124;DHT22;11731;48.592;8.858;2023-08-20T12:53:58;33.70;95.80
23124;DHT22;11731;48.592;8.858;2023-08-20T12:56:31;33.60;95.80
23124;DHT22;11731;48.592;8.858;2023-08-20T12:58:59;33.80;95.80
23124;DHT22;11731;48.592;8.858;2023-08-20T13:01:26;33.60;95.60
23124;DHT22;11731;48.592;8.858;2023-08-20T13:03:53;33.60;95.70
23124;DHT22;11731;48.592;8.858;2023-08-20T13:06:27;33.50;96.00
23124;DHT22;11731;48.592;8.858;2023-08-20T13:09:05;33.30;95.70
23124;DHT22;11731;48.592;8.858;2023-08-20T13:11:35;33.50;95.50
23124;DHT22;11731;48.592;8.858;2023-08-20T13:14:05;33.50;95.80
23124;DHT22;11731;48.592;8.858;2023-08-20T13:16:33;33.60;96.10
23124;DHT22;11731;48.592;8.858;2023-08-20T13:19:00;33.60;96.30
23124;DHT22;11731;48.592;8.858;2023-08-20T13:21:28;33.80;96.00
23124;DHT22;11731;48.592;8.858;2023-08-20T13:23:55;33.70;95.90
23124;DHT22;11731;48.592;8.858;2023-08-20T13:26:21;33.60;95.90
23124;DHT22;11731;48.592;8.858;2023-08-20T13:28:48;34.10;95.30
23124;DHT22;11731;48.592;8.858;2023-08-20T13:31:17;34.30;95.00
23124;DHT22;11731;48.592;8.858;2023-08-20T13:33:43;34.20;94.90
23124;DHT22;11731;48.592;8.858;2023-08-20T13:36:10;34.20;95.40
23124;DHT22;11731;48.592;8.858;2023-08-20T13:38:37;34.30;95.10
23124;DHT22;11731;48.592;8.858;2023-08-20T13:41:04;34.20;94.60
23124;DHT22;11731;48.592;8.858;2023-08-20T13:43:31;33.90;94.60
23124;DHT22;11731;48.592;8.858;2023-08-20T13:45:57;33.70;96.10
23124;DHT22;11731;48.592;8.858;2023-08-20T13:48:26;33.70;96.00
23124;DHT22;11731;48.592;8.858;2023-08-20T13:50:52;33.80;95.40
23124;DHT22;11731;48.592;8.858;2023-08-20T13:53:19;34.10;95.10
23124;DHT22;11731;48.592;8.858;2023-08-20T13:55:46;34.40;94.70
23124;DHT22;11731;48.592;8.858;2023-08-20T13:58:13;34.60;94.50
23124;DHT22;11731;48.592;8.858;2023-08-20T14:00:40;35.10;93.90
23124;DHT22;11731;48.592;8.858;2023-08-20T14:03:07;35.10;94.00
23124;DHT22;11731;48.592;8.858;2023-08-20T14:05:36;35.40;93.30
23124;DHT22;11731;48.592;8.858;2023-08-20T14:08:03;35.70;93.40
23124;DHT22;11731;48.592;8.858;2023-08-20T14:10:30;36.00;92.50
23124;DHT22;11731;48.592;8.858;2023-08-20T14:12:57;36.00;92.00
23124;DHT22;11731;48.592;8.858;2023-08-20T14:15:24;35.90;92.30
23124;DHT22;11731;48.592;8.858;2023-08-20T14:17:51;35.70;92.40
23124;DHT22;11731;48.592;8.858;2023-08-20T14:20:17;36.10;91.50
23124;DHT22;11731;48.592;8.858;2023-08-20T14:22:46;36.10;92.10
23124;DHT22;11731;48.592;8.858;2023-08-20T14:25:12;35.70;93.40
23124;DHT22;11731;48.592;8.858;2023-08-20T14:27:39;35.10;93.60
23124;DHT22;11731;48.592;8.858;2023-08-20T14:30:07;34.30;95.00
23124;DHT22;11731;48.592;8.858;2023-08-20T14:32:36;33.60;96.20
23124;DHT22;11731;48.592;8.858;2023-08-20T14:35:03;33.50;96.70
23124;DHT22;11731;48.592;8.858;2023-08-20T14:37:30;33.50;96.80
23124;DHT22;11731;48.592;8.858;2023-08-20T14:39:58;33.80;96.40
23124;DHT22;11731;48.592;8.858;2023-08-20T14:42:25;33.50;96.40
23124;DHT22;11731;48.592;8.858;2023-08-20T14:44:55;33.60;96.30
23124;DHT22;11731;48.592;8.858;2023-08-20T14:47:26;33.70;96.10
23124;DHT22;11731;48.592;8.858;2023-08-20T14:49:52;33.70;96.40
23124;DHT22;11731;48.592;8.858;2023-08-20T14:52:19;33.80;95.90
23124;DHT22;11731;48.592;8.858;2023-08-20T14:54:46;33.80;96.00
23124;DHT22;11731;48.592;8.858;2023-08-20T14:57:18;33.60;96.60
23124;DHT22;11731;48.592;8.858;2023-08-20T14:59:45;33.50;96.30
23124;DHT22;11731;48.592;8.858;2023-08-20T15:02:16;33.60;96.10
23124;DHT22;11731;48.592;8.858;2023-08-20T15:05:00;33.80;95.90
23124;DHT22;11731;48.592;8.858;2023-08-20T15:07:27;33.80;96.20
23124;DHT22;11731;48.592;8.858;2023-08-20T15:09:54;33.70;96.30
23124;DHT22;11731;48.592;8.858;2023-08-20T15:12:23;33.50;96.30
23124;DHT22;11731;48.592;8.858;2023-08-20T15:14:49;33.30;96.40
23124;DHT22;11731;48.592;8.858;2023-08-20T15:17:16;33.50;96.20
23124;DHT22;11731;48.592;8.858;2023-08-20T15:19:57;33.40;96.40
23124;DHT22;11731;48.592;8.858;2023-08-20T15:22:24;33.10;96.40
23124;DHT22;11731;48.592;8.858;2023-08-20T15:24:51;32.90;96.90
23124;DHT22;11731;48.592;8.858;2023-08-20T15:27:18;32.80;96.90
23124;DHT22;11731;48.592;8.858;2023-08-20T15:29:46;32.60;96.90
23124;DHT22;11731;48.592;8.858;2023-08-20T15:32:13;32.70;97.60
23124;DHT22;11731;48.592;8.858;2023-08-20T15:34:42;33.10;97.20
23124;DHT22;11731;48.592;8.858;2023-08-20T15:37:18;33.30;96.70
23124;DHT22;11731;48.592;8.858;2023-08-20T15:39:45;33.40;96.70
23124;DHT22;11731;48.592;8.858;2023-08-20T15:42:12;33.30;96.90
23124;DHT22;11731;48.592;8.858;2023-08-20T15:44:39;33.40;96.90
23124;DHT22;11731;48.592;8.858;2023-08-20T15:47:10;33.40;96.70
23124;DHT22;11731;48.592;8.858;2023-08-20T15:49:37;33.00;97.20
23124;DHT22;11731;48.592;8.858;2023-08-20T15:52:04;33.10;97.60
23124;DHT22;11731;48.592;8.858;2023-08-20T15:54:31;32.90;97.50
23124;DHT22;11731;48.592;8.858;2023-08-20T15:56:57;32.80;98.00
23124;DHT22;11731;48.592;8.858;2023-08-20T15:59:24;32.90;97.70
23124;DHT22;11731;48.592;8.858;2023-08-20T16:01:51;32.70;98.20
23124;DHT22;11731;48.592;8.858;2023-08-20T16:04:19;32.50;98.80
23124;DHT22;11731;48.592;8.858;2023-08-20T16:06:46;32.60;98.90
23124;DHT22;11731;48.592;8.858;2023-08-20T16:09:13;32.60;98.70
23124;DHT22;11731;48.592;8.858;2023-08-20T16:11:40;32.60;98.70